Time;durP1;ratioP1;P1;durP2;ratioP2;P2;SDS_P1;SDS_P2;PMS_P1;PMS_P2;Temp;Humidity;BMP_temperature;BMP_pressure;BME280_temperature;BME280_humidity;BME280_pressure;Samples;Min_cycle;Max_cycle;Signal;HPM_P1;HPM_P2
2023/03/21 00:00:18;;;;;;;25.80;17.40;;;;;;;9.52;81.84;100057.54;131224;1253;107506;-74
2023/03/21 00:03:45;;;;;;;26.20;17.20;;;;;;;9.49;81.85;100054.89;131093;1256;108024;-75
2023/03/21 00:06:51;;;;;;;27.30;17.80;;;;;;;9.51;81.95;100054.44;131201;1250;107376;-73
2023/03/21 00:09:56;;;;;;;27.10;18.50;;;;;;;9.51;82.06;100050.71;131160;1253;106526;-74
2023/03/21 00:13:02;;;;;;;26.60;17.00;;;;;;;9.45;82.25;100051.28;131258;1253;107540;-74
2023/03/21 00:16:14;;;;;;;27.40;15.80;;;;;;;9.41;82.22;100049.25;131107;1250;107539;-73
2023/03/21 00:19:20;;;;;;;27.90;18.10;;;;;;;9.43;82.27;100046.94;131345;1253;107322;-73
2023/03/21 00:22:26;;;;;;;27.50;17.80;;;;;;;9.45;82.36;100043.06;131216;1254;105629;-73
2023/03/21 00:25:31;;;;;;;29.10;18.80;;;;;;;9.45;82.36;100039.70;130986;1251;106646;-74
2023/03/21 00:28:38;;;;;;;28.30;18.10;;;;;;;9.46;82.55;100038.77;130980;1250;106498;-76
2023/03/21 00:31:43;;;;;;;25.70;17.20;;;;;;;9.37;82.49;100040.48;131044;1251;107394;-76
2023/03/21 00:34:50;;;;;;;24.00;15.30;;;;;;;9.27;83.19;100039.14;131001;1251;107525;-76
2023/03/21 00:37:56;;;;;;;22.30;14.40;;;;;;;9.22;82.77;100037.30;131126;1256;108403;-74
2023/03/21 00:41:03;;;;;;;26.00;17.30;;;;;;;9.23;82.84;100032.62;131112;1251;107517;-75
2023/03/21 00:44:10;;;;;;;29.00;18.00;;;;;;;9.24;82.65;100028.01;131257;1253;107495;-74
2023/03/21 00:47:16;;;;;;;28.00;17.50;;;;;;;9.28;82.85;100033.59;131079;1250;107394;-75
2023/03/21 00:50:21;;;;;;;28.20;18.20;;;;;;;9.28;82.75;100027.73;131139;1253;107554;-75
2023/03/21 00:53:27;;;;;;;27.80;18.40;;;;;;;9.23;83.03;100025.30;131198;1253;107640;-74
2023/03/21 00:56:32;;;;;;;28.20;16.80;;;;;;;9.19;82.83;100019.70;131029;1253;107514;-74
2023/03/21 00:59:38;;;;;;;25.40;15.20;;;;;;;9.13;83.58;100021.45;131087;1262;107370;-75
2023/03/21 01:02:55;;;;;;;26.20;16.80;;;;;;;9.08;83.14;100014.37;131309;1254;106665;-75
2023/03/21 01:06:06;;;;;;;25.30;16.90;;;;;;;9.08;83.17;100009.39;131133;1253;107509;-74
2023/03/21 01:09:14;;;;;;;24.40;17.20;;;;;;;9.10;83.12;100010.23;131131;1250;107227;-75
2023/03/21 01:12:19;;;;;;;28.70;18.30;;;;;;;9.08;83.00;100016.84;131116;1252;107245;-75
2023/03/21 01:15:25;;;;;;;31.10;19.20;;;;;;;9.05;83.00;100018.73;131114;1253;107564;-75
2023/03/21 01:18:31;;;;;;;27.70;16.20;;;;;;;9.04;83.06;100022.36;131129;1254;106342;-75
2023/03/21 01:21:37;;;;;;;22.60;15.00;;;;;;;9.04;83.06;100023.56;130942;1254;107668;-74
2023/03/21 01:24:43;;;;;;;25.10;16.10;;;;;;;9.05;83.27;100020.54;131209;1253;107170;-74
2023/03/21 01:27:48;;;;;;;29.30;18.20;;;;;;;9.08;83.14;100019.92;131174;1253;107370;-75
2023/03/21 01:30:54;;;;;;;28.60;17.80;;;;;;;9.08;82.98;100010.27;130967;1250;107651;-74
2023/03/21 01:33:59;;;;;;;28.70;17.70;;;;;;;9.09;82.80;100008.77;131141;1250;107467;-75
2023/03/21 01:37:05;;;;;;;27.00;17.60;;;;;;;9.05;83.15;100011.45;131227;1253;106695;-75
2023/03/21 01:40:20;;;;;;;23.90;15.40;;;;;;;8.99;83.01;100013.08;131138;1253;107515;-76
2023/03/21 01:43:30;;;;;;;24.10;15.10;;;;;;;8.96;83.17;100008.71;131129;1253;107379;-74
2023/03/21 01:46:40;;;;;;;27.80;17.10;;;;;;;8.95;82.99;100004.27;131062;1253;107452;-75
2023/03/21 01:50:10;;;;;;;28.00;17.00;;;;;;;8.98;82.98;100004.13;130929;1250;107466;-75
2023/03/21 01:53:27;;;;;;;25.50;16.60;;;;;;;8.99;82.93;100004.20;131052;1253;107418;-75
2023/03/21 01:56:36;;;;;;;27.40;17.50;;;;;;;9.00;82.91;100000.91;131069;1253;107508;-75
2023/03/21 01:59:50;;;;;;;29.30;17.50;;;;;;;9.00;82.85;99999.48;131113;1251;107527;-75
2023/03/21 02:03:16;;;;;;;23.00;14.50;;;;;;;8.98;82.98;99998.96;131172;1253;107220;-76
2023/03/21 02:06:44;;;;;;;22.00;13.00;;;;;;;8.96;83.05;99994.20;131155;1251;107430;-73
2023/03/21 02:10:09;;;;;;;23.30;15.80;;;;;;;8.97;82.97;99989.10;131216;1253;107472;-75
2023/03/21 02:13:15;;;;;;;28.50;17.40;;;;;;;9.00;83.13;99994.90;131179;1253;107451;-74
2023/03/21 02:16:35;;;;;;;26.90;16.60;;;;;;;9.03;82.92;99998.69;130851;1253;186634;-75
2023/03/21 02:20:29;;;;;;;28.10;18.20;;;;;;;9.01;83.10;99995.31;131129;1255;107533;-75
2023/03/21 02:24:18;;;;;;;23.80;15.60;;;;;;;9.01;83.06;99999.63;130490;1261;107486;-76
2023/03/21 02:27:24;;;;;;;23.60;14.60;;;;;;;8.97;83.01;99996.56;131066;1253;107520;-75
2023/03/21 02:31:04;;;;;;;26.20;14.60;;;;;;;8.95;83.10;99992.60;130962;1251;107527;-76
2023/03/21 02:34:45;;;;;;;28.50;17.00;;;;;;;8.94;83.23;99990.52;131097;1251;107989;-76
2023/03/21 02:37:56;;;;;;;23.60;15.80;;;;;;;8.96;83.08;99983.21;131236;1251;107730;-75
2023/03/21 02:41:09;;;;;;;26.40;17.50;;;;;;;8.99;83.18;99988.61;131072;1254;107514;-75
2023/03/21 02:44:19;;;;;;;27.20;16.90;;;;;;;9.01;83.00;99988.45;131081;1253;107362;-74
2023/03/21 02:47:29;;;;;;;25.20;16.90;;;;;;;8.99;82.99;99991.80;131345;1250;107543;-74
2023/03/21 02:50:40;;;;;;;26.10;15.40;;;;;;;8.96;83.04;99988.16;131424;1253;107456;-74
2023/03/21 02:53:52;;;;;;;22.20;13.50;;;;;;;8.93;83.06;99991.32;131293;1253;107341;-74
2023/03/21 02:57:02;;;;;;;27.20;17.50;;;;;;;8.92;83.07;99993.75;131203;1253;107547;-74
2023/03/21 03:00:13;;;;;;;27.20;17.00;;;;;;;8.91;83.16;99995.59;131049;1253;107521;-75
2023/03/21 03:03:19;;;;;;;25.20;16.40;;;;;;;8.91;83.03;99996.27;131157;1253;107457;-75
2023/03/21 03:06:32;;;;;;;24.30;17.10;;;;;;;8.93;83.22;99996.80;131002;1251;107345;-76
2023/03/21 03:09:50;;;;;;;26.60;17.40;;;;;;;8.94;82.99;100000.48;131116;1253;107542;-76
2023/03/21 03:13:10;;;;;;;24.90;16.60;;;;;;;8.95;83.15;100003.73;131301;1260;106415;-76
2023/03/21 03:16:29;;;;;;;27.60;15.40;;;;;;;8.91;83.22;100006.75;131031;1251;107365;-74
2023/03/21 03:19:46;;;;;;;22.80;13.40;;;;;;;8.89;83.17;100010.23;131199;1253;108601;-75
2023/03/21 03:23:00;;;;;;;24.90;15.00;;;;;;;8.89;83.48;100010.39;131083;1253;106523;-75
2023/03/21 03:26:08;;;;;;;26.80;16.50;;;;;;;8.93;83.50;100009.78;131020;1261;107504;-75
2023/03/21 03:29:17;;;;;;;23.50;15.80;;;;;;;8.97;83.32;100011.19;131016;1254;107391;-75
2023/03/21 03:32:29;;;;;;;25.00;15.60;;;;;;;8.97;83.35;100008.84;131174;1253;107548;-75
2023/03/21 03:35:35;;;;;;;24.50;16.30;;;;;;;8.96;83.48;100005.63;131389;1253;107478;-75
2023/03/21 03:38:43;;;;;;;23.60;14.30;;;;;;;8.95;83.26;100007.05;131060;1252;107367;-75
2023/03/21 03:41:55;;;;;;;22.80;13.20;;;;;;;8.94;83.41;100009.45;131166;1251;107391;-73
2023/03/21 03:45:01;;;;;;;109.90;56.20;;;;;;;8.96;83.34;100013.07;130998;1251;107557;-75
2023/03/21 03:48:14;;;;;;;67.70;31.80;;;;;;;8.99;83.27;100004.91;131037;1253;107391;-76
2023/03/21 03:51:27;;;;;;;50.60;24.90;;;;;;;9.02;83.47;100005.86;131060;1253;107502;-75
2023/03/21 03:54:58;;;;;;;41.90;21.90;;;;;;;9.03;83.45;99999.02;130930;1253;107520;-75
2023/03/21 03:58:04;;;;;;;52.30;26.90;;;;;;;9.01;83.58;99997.47;131075;1253;107521;-75
2023/03/21 04:01:10;;;;;;;73.50;34.60;;;;;;;8.97;83.54;100001.25;130968;1254;108565;-75
2023/03/21 04:04:16;;;;;;;68.70;29.90;;;;;;;8.98;83.59;100000.79;131125;1251;107419;-74
2023/03/21 04:07:24;;;;;;;50.00;23.90;;;;;;;8.98;83.49;99992.58;131020;1254;107477;-75
2023/03/21 04:10:30;;;;;;;67.50;29.60;;;;;;;9.00;83.79;99995.62;131082;1253;107569;-74
2023/03/21 04:13:36;;;;;;;66.10;28.60;;;;;;;9.01;83.52;99991.75;131105;1253;108465;-75
2023/03/21 04:16:51;;;;;;;474.50;206.30;;;;;;;9.02;83.61;99995.08;131140;1253;107482;-75
2023/03/21 04:19:56;;;;;;;259.10;114.30;;;;;;;9.02;83.70;99992.22;131052;1249;108697;-75
2023/03/21 04:23:02;;;;;;;61.50;33.90;;;;;;;9.03;83.72;99992.32;131014;1250;107499;-76
2023/03/21 04:26:09;;;;;;;32.40;19.70;;;;;;;9.01;83.67;99995.86;131307;1253;107453;-76
2023/03/21 04:29:19;;;;;;;31.80;20.20;;;;;;;8.98;83.62;99997.27;131323;1253;107453;-75
2023/03/21 04:32:52;;;;;;;32.00;20.20;;;;;;;9.00;83.89;99998.95;131151;1253;107222;-75
2023/03/21 04:35:58;;;;;;;43.10;30.10;;;;;;;9.04;83.66;99997.70;131123;1253;107539;-75
2023/03/21 04:39:11;;;;;;;34.30;22.10;;;;;;;9.07;83.58;99997.23;131193;1253;107439;-75
2023/03/21 04:42:18;;;;;;;35.90;23.50;;;;;;;9.09;83.65;100001.20;131066;1253;108648;-75
2023/03/21 04:45:23;;;;;;;47.50;31.60;;;;;;;9.08;83.79;100002.30;131322;1254;107389;-76
2023/03/21 04:48:29;;;;;;;40.90;25.80;;;;;;;9.08;83.64;100004.13;131151;1253;107497;-75
2023/03/21 04:51:36;;;;;;;33.80;21.90;;;;;;;9.07;83.83;100004.00;131192;1253;107530;-75
2023/03/21 04:54:43;;;;;;;39.80;27.80;;;;;;;9.09;83.60;100010.79;131097;1251;107528;-75
2023/03/21 04:57:49;;;;;;;137.20;78.20;;;;;;;9.11;83.67;100004.48;131196;1253;108442;-75
2023/03/21 05:00:56;;;;;;;61.10;36.10;;;;;;;9.14;83.84;100005.05;131057;1253;107514;-75
2023/03/21 05:04:03;;;;;;;40.40;26.50;;;;;;;9.18;83.67;100010.41;131108;1253;107437;-75
2023/03/21 05:07:10;;;;;;;57.90;37.40;;;;;;;9.16;83.61;100013.91;130998;1254;107489;-76
2023/03/21 05:10:16;;;;;;;37.50;23.40;;;;;;;9.13;83.83;100017.13;131316;1256;107461;-75
2023/03/21 05:13:22;;;;;;;28.90;17.70;;;;;;;9.04;84.05;100015.13;131131;1254;107495;-75
2023/03/21 05:16:29;;;;;;;24.50;15.70;;;;;;;9.01;84.13;100012.67;131104;1252;107529;-76
2023/03/21 05:19:35;;;;;;;52.40;32.90;;;;;;;8.98;84.36;100019.75;131256;1253;106568;-75
2023/03/21 05:22:41;;;;;;;92.00;63.00;;;;;;;8.96;84.26;100017.08;131063;1253;107555;-75
2023/03/21 05:25:50;;;;;;;79.90;53.70;;;;;;;9.04;84.45;100019.39;131160;1252;109071;-75
2023/03/21 05:29:20;;;;;;;55.70;37.70;;;;;;;9.10;84.28;100013.84;131047;1253;107559;-75
2023/03/21 05:32:32;;;;;;;58.30;41.60;;;;;;;9.10;84.48;100020.98;131115;1253;107507;-74
2023/03/21 05:35:39;;;;;;;37.10;24.30;;;;;;;9.10;84.35;100021.84;131427;1253;107441;-74
2023/03/21 05:38:47;;;;;;;26.70;17.10;;;;;;;9.11;84.53;100028.98;131089;1250;107425;-74
2023/03/21 05:41:52;;;;;;;27.60;18.40;;;;;;;9.06;84.60;100023.63;131076;1256;107449;-75
2023/03/21 05:44:58;;;;;;;29.30;18.30;;;;;;;9.03;84.84;100031.13;131260;1253;107480;-76
2023/03/21 05:48:08;;;;;;;40.00;22.70;;;;;;;8.98;84.73;100031.44;131163;1251;108668;-76
2023/03/21 05:51:24;;;;;;;38.20;22.20;;;;;;;8.99;84.88;100034.23;130999;1255;109045;-76
2023/03/21 05:54:30;;;;;;;30.60;20.40;;;;;;;8.96;84.86;100034.33;130955;1253;107976;-75
2023/03/21 05:57:39;;;;;;;23.80;14.70;;;;;;;8.90;84.93;100039.30;131017;1253;107426;-75
2023/03/21 06:00:47;;;;;;;23.00;14.70;;;;;;;8.82;85.38;100039.59;131034;1253;107441;-76
2023/03/21 06:03:58;;;;;;;32.80;19.40;;;;;;;8.79;85.28;100044.48;131078;1253;107507;-76
2023/03/21 06:07:06;;;;;;;31.30;19.50;;;;;;;8.81;85.19;100038.90;131105;1253;107489;-75
2023/03/21 06:10:13;;;;;;;30.20;19.60;;;;;;;8.90;85.03;100042.02;131138;1256;107479;-77
2023/03/21 06:13:21;;;;;;;31.00;18.90;;;;;;;8.92;85.23;100045.36;131052;1256;107544;-76
2023/03/21 06:16:27;;;;;;;40.40;24.00;;;;;;;8.84;85.48;100045.40;131056;1250;107472;-76
2023/03/21 06:19:33;;;;;;;27.60;16.80;;;;;;;8.82;85.34;100050.39;132881;1250;107437;-74
2023/03/21 06:22:43;;;;;;;29.10;18.50;;;;;;;8.84;85.54;100052.71;131014;1253;107511;-74
2023/03/21 06:25:50;;;;;;;49.20;30.70;;;;;;;8.84;86.01;100051.05;130998;1253;107552;-75
2023/03/21 06:28:56;;;;;;;26.70;17.40;;;;;;;8.90;85.65;100057.58;130934;1256;107646;-74
2023/03/21 06:32:02;;;;;;;24.40;16.70;;;;;;;8.90;85.70;100062.03;131413;1253;107546;-71
2023/03/21 06:35:09;;;;;;;28.70;18.80;;;;;;;8.83;85.51;100066.80;131161;1252;107411;-72
2023/03/21 06:38:15;;;;;;;21.50;14.10;;;;;;;8.81;85.79;100065.35;131237;1250;107528;-75
2023/03/21 06:41:21;;;;;;;20.60;12.50;;;;;;;8.85;85.69;100060.60;131259;1253;107572;-71
2023/03/21 06:44:36;;;;;;;31.70;23.20;;;;;;;8.90;85.56;100067.16;131321;1253;107021;-70
2023/03/21 06:47:45;;;;;;;23.90;15.60;;;;;;;8.97;85.64;100069.31;131218;1254;107865;-75
2023/03/21 06:51:06;;;;;;;42.40;30.10;;;;;;;9.01;85.54;100070.36;131247;1253;107454;-74
2023/03/21 06:54:16;;;;;;;62.00;45.00;;;;;;;9.03;85.48;100072.70;131200;1254;107454;-74
2023/03/21 06:57:36;;;;;;;49.00;33.40;;;;;;;9.06;85.35;100074.38;131337;1253;107395;-75
2023/03/21 07:00:43;;;;;;;65.90;39.70;;;;;;;9.11;85.34;100077.83;131212;1253;107464;-74
2023/03/21 07:03:50;;;;;;;31.60;20.10;;;;;;;9.13;85.43;100080.28;131341;1253;107427;-76
2023/03/21 07:06:57;;;;;;;25.80;17.40;;;;;;;9.12;85.41;100082.66;131259;1254;107461;-75
2023/03/21 07:10:05;;;;;;;41.80;30.50;;;;;;;9.13;85.45;100083.27;131056;1253;107460;-75
2023/03/21 07:13:18;;;;;;;38.30;26.50;;;;;;;9.15;85.64;100085.33;131208;1253;107799;-76
2023/03/21 07:16:31;;;;;;;25.00;17.50;;;;;;;9.01;85.34;100086.89;131221;1253;107416;-75
2023/03/21 07:19:36;;;;;;;22.60;15.50;;;;;;;8.91;85.43;100091.94;131366;1250;107530;-75
2023/03/21 07:22:42;;;;;;;26.70;17.50;;;;;;;8.90;85.70;100090.96;131039;1251;107460;-76
2023/03/21 07:25:49;;;;;;;25.20;16.50;;;;;;;8.86;86.00;100086.86;131063;1253;107560;-74
2023/03/21 07:28:55;;;;;;;29.60;18.30;;;;;;;8.79;86.16;100087.06;131109;1263;107542;-75
2023/03/21 07:32:00;;;;;;;31.20;20.60;;;;;;;8.78;86.02;100089.92;131287;1251;107232;-75
2023/03/21 07:35:08;;;;;;;39.40;28.30;;;;;;;8.76;86.24;100089.63;131330;1253;107402;-74
2023/03/21 07:38:15;;;;;;;22.00;13.60;;;;;;;8.73;85.92;100090.84;131387;1253;108699;-73
2023/03/21 07:41:21;;;;;;;26.90;16.40;;;;;;;8.69;86.03;100092.58;131183;1253;106552;-75
2023/03/21 07:44:29;;;;;;;33.60;24.40;;;;;;;8.71;86.35;100095.66;131018;1252;107549;-75
2023/03/21 07:47:41;;;;;;;64.80;34.20;;;;;;;8.67;86.40;100093.55;131045;1253;107448;-76
2023/03/21 07:50:48;;;;;;;67.20;34.80;;;;;;;8.67;86.33;100096.01;131138;1253;107512;-75
2023/03/21 07:53:54;;;;;;;35.80;20.80;;;;;;;8.69;86.54;100094.17;131155;1253;107396;-74
2023/03/21 07:57:00;;;;;;;21.20;13.80;;;;;;;8.72;86.40;100095.00;131201;1253;107508;-76
2023/03/21 08:00:06;;;;;;;20.00;12.80;;;;;;;8.81;86.28;100096.27;131255;1249;107241;-75
2023/03/21 08:03:18;;;;;;;22.30;14.00;;;;;;;8.89;86.13;100101.52;131189;1251;107526;-76
2023/03/21 08:06:27;;;;;;;21.80;14.60;;;;;;;9.00;86.04;100103.64;131185;1254;107421;-77
2023/03/21 08:09:32;;;;;;;20.90;14.20;;;;;;;9.02;85.97;100106.46;131406;1254;107446;-73
2023/03/21 08:12:37;;;;;;;22.00;14.90;;;;;;;9.04;85.84;100107.70;131298;1252;106534;-75
2023/03/21 08:15:43;;;;;;;22.20;15.90;;;;;;;9.09;86.04;100108.65;131378;1255;107614;-75
2023/03/21 08:18:49;;;;;;;19.60;13.10;;;;;;;9.05;85.92;100109.57;131440;1251;107514;-74
2023/03/21 08:21:54;;;;;;;19.20;12.80;;;;;;;8.99;86.10;100114.77;131058;1253;107246;-74
2023/03/21 08:25:00;;;;;;;23.20;15.60;;;;;;;8.98;86.08;100111.24;131077;1263;106532;-74
2023/03/21 08:28:05;;;;;;;23.10;15.60;;;;;;;8.96;85.95;100112.01;131207;1262;107549;-76
2023/03/21 08:31:13;;;;;;;23.60;17.00;;;;;;;8.99;86.28;100113.35;131036;1251;107507;-74
2023/03/21 08:34:18;;;;;;;25.10;18.10;;;;;;;8.95;86.15;100116.58;131211;1253;107261;-75
2023/03/21 08:37:24;;;;;;;26.70;17.70;;;;;;;8.88;86.39;100120.09;131116;1253;107500;-74
2023/03/21 08:40:30;;;;;;;22.90;15.30;;;;;;;8.77;87.03;100129.30;131183;1253;108621;-73
2023/03/21 08:43:36;;;;;;;21.00;13.90;;;;;;;8.62;87.16;100132.39;131221;1255;107516;-74
2023/03/21 08:46:41;;;;;;;26.40;17.50;;;;;;;8.58;87.38;100137.43;131208;1254;107510;-75
2023/03/21 08:49:47;;;;;;;41.40;31.40;;;;;;;8.59;87.53;100141.02;131514;1254;107542;-75
2023/03/21 08:52:53;;;;;;;26.10;17.90;;;;;;;8.61;87.29;100142.45;131281;1251;107231;-74
2023/03/21 08:55:58;;;;;;;23.40;16.50;;;;;;;8.64;87.62;100141.42;131239;1251;108622;-74
2023/03/21 08:59:04;;;;;;;25.30;15.90;;;;;;;8.66;87.67;100140.58;131113;1253;107538;-74
2023/03/21 09:02:09;;;;;;;22.30;14.30;;;;;;;8.71;87.57;100142.98;131315;1253;107534;-74
2023/03/21 09:05:15;;;;;;;22.80;14.50;;;;;;;8.85;87.76;100139.54;131454;1253;107590;-74
2023/03/21 09:08:22;;;;;;;19.50;14.00;;;;;;;9.07;87.58;100142.55;131146;1252;107563;-74
2023/03/21 09:11:28;;;;;;;21.30;14.90;;;;;;;9.25;87.36;100146.15;131165;1254;107392;-73
2023/03/21 09:14:34;;;;;;;20.40;14.60;;;;;;;9.32;87.46;100140.23;131213;1261;107277;-73
2023/03/21 09:17:42;;;;;;;22.30;15.30;;;;;;;9.29;87.20;100144.05;131307;1263;106530;-73
2023/03/21 09:20:49;;;;;;;17.00;11.90;;;;;;;9.14;87.16;100148.44;131382;1254;107330;-74
2023/03/21 09:23:57;;;;;;;18.90;13.00;;;;;;;8.90;87.49;100154.29;131335;1253;107518;-74
2023/03/21 09:27:03;;;;;;;14.40;9.80;;;;;;;8.82;87.61;100154.46;131126;1254;106283;-74
2023/03/21 09:30:11;;;;;;;16.10;11.30;;;;;;;8.79;87.45;100164.41;131241;1254;107672;-74
2023/03/21 09:33:20;;;;;;;20.60;12.20;;;;;;;8.79;87.46;100163.48;131404;1262;107476;-74
2023/03/21 09:36:27;;;;;;;15.70;9.50;;;;;;;8.91;87.65;100169.62;131363;1262;106523;-74
2023/03/21 09:39:32;;;;;;;20.80;11.90;;;;;;;9.06;87.67;100167.56;131170;1263;108545;-74
2023/03/21 09:42:48;;;;;;;12.10;7.30;;;;;;;9.21;87.21;100169.09;131148;1261;107525;-74
2023/03/21 09:45:59;;;;;;;8.80;7.00;;;;;;;9.34;86.65;100169.46;131104;1254;107726;-74
2023/03/21 09:49:10;;;;;;;8.40;5.30;;;;;;;9.46;86.19;100173.99;131422;1253;107552;-75
2023/03/21 09:52:22;;;;;;;6.60;3.80;;;;;;;9.56;86.33;100169.63;131267;1253;107410;-75
2023/03/21 09:55:30;;;;;;;6.70;4.30;;;;;;;9.71;86.06;100170.86;131273;1263;108188;-75
2023/03/21 09:58:41;;;;;;;5.60;4.10;;;;;;;9.89;86.08;100166.65;131279;1263;107335;-75
2023/03/21 10:01:48;;;;;;;19.60;12.70;;;;;;;10.03;85.68;100169.20;131505;1260;107261;-75
2023/03/21 10:04:54;;;;;;;12.80;9.80;;;;;;;10.13;85.00;100172.93;131390;1253;107237;-75
2023/03/21 10:08:06;;;;;;;18.20;14.10;;;;;;;10.10;84.33;100172.16;131245;1254;107410;-74
2023/03/21 10:11:17;;;;;;;9.90;6.90;;;;;;;10.02;85.14;100173.71;131211;1263;107510;-74
2023/03/21 10:14:27;;;;;;;10.30;8.60;;;;;;;10.03;85.46;100171.48;131358;1252;106090;-74
2023/03/21 10:17:39;;;;;;;8.20;6.10;;;;;;;10.08;85.25;100171.35;131183;1253;107520;-74
2023/03/21 10:20:45;;;;;;;9.40;5.50;;;;;;;10.09;84.89;100171.18;131206;1254;107444;-74
2023/03/21 10:23:53;;;;;;;7.20;5.80;;;;;;;10.12;84.66;100170.92;131178;1252;107232;-73
2023/03/21 10:27:00;;;;;;;8.40;6.00;;;;;;;10.24;84.96;100166.73;131040;1261;107270;-73
2023/03/21 10:30:12;;;;;;;7.70;6.20;;;;;;;10.46;84.84;100173.83;131174;1264;107293;-72
2023/03/21 10:33:19;;;;;;;;;;;;;;;10.62;83.94;100170.80;131219;1253;107527;-73
2023/03/21 10:36:27;;;;;;;7.30;5.20;;;;;;;10.81;84.43;100172.96;131129;1253;107355;-74
2023/03/21 10:39:37;;;;;;;9.00;7.70;;;;;;;10.94;84.07;100173.75;131095;1255;107268;-74
2023/03/21 10:42:43;;;;;;;6.50;5.00;;;;;;;10.88;82.92;100180.98;131073;1263;107254;-74
2023/03/21 10:45:49;;;;;;;5.50;4.40;;;;;;;10.78;82.89;100179.31;131032;1253;107621;-73
2023/03/21 10:48:55;;;;;;;5.50;4.80;;;;;;;10.76;82.78;100177.40;131187;1262;107546;-73
2023/03/21 10:52:05;;;;;;;11.50;10.40;;;;;;;10.79;82.92;100175.42;131324;1258;107441;-73
2023/03/21 10:55:21;;;;;;;8.00;7.00;;;;;;;10.84;82.23;100178.83;131133;1251;108251;-73
2023/03/21 10:58:32;;;;;;;7.50;6.40;;;;;;;10.75;81.38;100178.92;131189;1255;107398;-73
2023/03/21 11:01:41;;;;;;;8.40;6.80;;;;;;;10.56;81.82;100180.77;131068;1254;107298;-74
2023/03/21 11:04:47;;;;;;;5.10;4.10;;;;;;;10.40;80.60;100188.66;131254;1253;107653;-73
2023/03/21 11:08:02;;;;;;;7.50;6.30;;;;;;;10.17;79.77;100190.66;131087;1263;108486;-73
2023/03/21 11:11:11;;;;;;;7.20;5.50;;;;;;;10.06;79.81;100185.05;131020;1254;107461;-73
2023/03/21 11:14:28;;;;;;;7.00;5.20;;;;;;;10.12;80.58;100181.08;131168;1254;109316;-74
2023/03/21 11:17:36;;;;;;;7.60;5.90;;;;;;;10.19;80.64;100184.21;131071;1253;107626;-73
2023/03/21 11:20:50;;;;;;;9.60;6.10;;;;;;;10.30;81.46;100185.16;131117;1251;107185;-74
2023/03/21 11:23:56;;;;;;;7.50;5.40;;;;;;;10.44;82.02;100181.13;131099;1254;107371;-74
2023/03/21 11:27:07;;;;;;;7.40;6.00;;;;;;;10.57;80.76;100181.17;131110;1253;107395;-74
2023/03/21 11:30:23;;;;;;;7.30;5.60;;;;;;;10.65;81.61;100180.13;131364;1251;107454;-74
2023/03/21 11:33:33;;;;;;;9.50;6.40;;;;;;;10.79;82.22;100179.66;131342;1261;107360;-75
2023/03/21 11:36:39;;;;;;;8.00;6.00;;;;;;;10.77;80.83;100184.08;131363;1262;106761;-73
2023/03/21 11:39:46;;;;;;;10.30;6.90;;;;;;;10.61;80.74;100179.00;131408;1254;107346;-73
2023/03/21 11:42:53;;;;;;;7.20;5.10;;;;;;;10.52;80.29;100174.83;131149;1252;107620;-74
2023/03/21 11:46:00;;;;;;;9.90;7.10;;;;;;;10.40;78.97;100173.92;131036;1263;107450;-73
2023/03/21 11:49:09;;;;;;;7.50;5.20;;;;;;;10.24;80.21;100170.42;131173;1251;107585;-73
2023/03/21 11:52:24;;;;;;;10.80;7.70;;;;;;;10.18;79.68;100173.31;131228;1254;109308;-73
2023/03/21 11:55:51;;;;;;;7.40;5.60;;;;;;;10.13;79.24;100174.22;131035;1263;107445;-74
2023/03/21 11:59:27;;;;;;;7.90;5.30;;;;;;;10.10;80.25;100173.07;131422;1254;108507;-73
2023/03/21 12:03:03;;;;;;;11.00;7.40;;;;;;;10.09;80.18;100170.38;131344;1251;107375;-73
2023/03/21 12:06:19;;;;;;;13.40;8.60;;;;;;;10.15;80.15;100172.21;131327;1251;107500;-72
2023/03/21 12:09:43;;;;;;;12.00;8.50;;;;;;;10.24;80.34;100167.27;131202;1259;107407;-73
2023/03/21 12:12:57;;;;;;;13.70;9.10;;;;;;;10.38;79.65;100170.01;131304;1255;107396;-74
2023/03/21 12:16:19;;;;;;;14.20;7.90;;;;;;;10.51;79.51;100162.11;131024;1253;107486;-73
2023/03/21 12:19:40;;;;;;;;;;;;;;;10.57;79.04;100165.24;131228;1255;107228;-73
2023/03/21 12:22:58;;;;;;;10.90;7.70;;;;;;;10.56;79.63;100166.02;131223;1253;107432;-73
2023/03/21 12:26:17;;;;;;;15.70;11.10;;;;;;;10.67;79.63;100164.93;131352;1247;107339;-73
2023/03/21 12:29:36;;;;;;;9.60;7.70;;;;;;;11.01;80.51;100153.16;131371;1261;107501;-74
2023/03/21 12:32:56;;;;;;;12.50;9.90;;;;;;;11.39;79.49;100145.99;131172;1254;107516;-73
2023/03/21 12:36:20;;;;;;;10.10;8.00;;;;;;;11.42;77.77;100152.79;131208;1254;107554;-72
2023/03/21 12:39:30;;;;;;;13.50;9.90;;;;;;;11.36;78.36;100149.96;131215;1254;107567;-73
2023/03/21 12:43:03;;;;;;;12.30;9.80;;;;;;;11.44;78.44;100142.05;131187;1254;107440;-73
2023/03/21 12:46:18;;;;;;;9.30;7.20;;;;;;;11.57;78.07;100141.20;131139;1254;107468;-73
2023/03/21 12:49:30;;;;;;;8.60;6.80;;;;;;;11.43;74.93;100141.91;131439;1254;107446;-74
2023/03/21 12:52:41;;;;;;;9.20;7.50;;;;;;;11.10;76.28;100145.77;131234;1247;107241;-73
2023/03/21 12:55:46;;;;;;;10.00;7.90;;;;;;;10.80;78.50;100156.14;131399;1254;108098;-73
2023/03/21 12:58:55;;;;;;;9.60;7.20;;;;;;;10.33;80.91;100157.52;131243;1261;107265;-73
2023/03/21 13:02:14;;;;;;;47.20;30.10;;;;;;;10.02;82.37;100149.57;131277;1254;107361;-71
2023/03/21 13:05:27;;;;;;;70.40;47.60;;;;;;;9.89;83.32;100149.98;131194;1254;108458;-73
2023/03/21 13:08:38;;;;;;;22.70;15.70;;;;;;;9.97;83.73;100145.02;131275;1253;107403;-73
2023/03/21 13:11:45;;;;;;;22.40;15.70;;;;;;;10.13;84.16;100143.66;131295;1253;107375;-73
2023/03/21 13:15:03;;;;;;;17.30;11.50;;;;;;;10.22;83.30;100141.81;131313;1253;107347;-73
2023/03/21 13:18:21;;;;;;;11.10;8.30;;;;;;;10.37;83.59;100143.73;131182;1254;107531;-73
2023/03/21 13:21:40;;;;;;;12.70;8.40;;;;;;;10.37;81.84;100142.36;131875;1250;107260;-75
2023/03/21 13:24:49;;;;;;;15.50;10.10;;;;;;;10.34;81.91;100143.70;131634;1251;108774;-74
2023/03/21 13:28:00;;;;;;;10.80;8.10;;;;;;;10.36;81.20;100142.39;131248;1254;107385;-72
2023/03/21 13:31:22;;;;;;;13.00;8.60;;;;;;;10.38;80.58;100138.53;131428;1251;107532;-72
2023/03/21 13:34:27;;;;;;;10.00;8.10;;;;;;;10.47;80.44;100136.90;131394;1254;108185;-74
2023/03/21 13:37:38;;;;;;;10.00;8.20;;;;;;;10.56;79.54;100136.67;131237;1252;107481;-73
2023/03/21 13:40:48;;;;;;;11.30;8.70;;;;;;;10.56;79.46;100129.70;131151;1253;107480;-73
2023/03/21 13:44:09;;;;;;;13.10;8.90;;;;;;;10.65;80.08;100132.40;131258;1260;107729;-73
2023/03/21 13:47:35;;;;;;;10.40;7.40;;;;;;;10.73;79.86;100127.00;131292;1253;107484;-72
2023/03/21 13:51:00;;;;;;;10.20;8.00;;;;;;;10.83;79.80;100126.45;131772;1250;107293;-73
2023/03/21 13:54:22;;;;;;;11.20;8.40;;;;;;;10.75;76.96;100127.42;131478;1254;109574;-73
2023/03/21 13:57:39;;;;;;;9.60;7.50;;;;;;;10.72;78.49;100127.95;131408;1250;107313;-73
2023/03/21 14:01:05;;;;;;;9.20;7.60;;;;;;;10.80;78.39;100129.48;131339;1254;108699;-72
2023/03/21 14:04:19;;;;;;;11.30;9.00;;;;;;;10.89;78.54;100127.11;131405;1254;106686;-72
2023/03/21 14:07:28;;;;;;;11.90;8.90;;;;;;;10.89;77.19;100129.24;131248;1253;105538;-72
2023/03/21 14:10:38;;;;;;;9.20;6.90;;;;;;;11.01;78.27;100126.96;131108;1252;107534;-73
2023/03/21 14:13:45;;;;;;;10.70;7.50;;;;;;;11.09;77.63;100127.24;131488;1249;107540;-76
2023/03/21 14:16:53;;;;;;;11.00;7.60;;;;;;;11.18;77.21;100124.95;131363;1251;133441;-72
2023/03/21 14:20:09;;;;;;;9.70;6.40;;;;;;;11.33;78.18;100121.86;131097;1251;107517;-73